Time;durP1;ratioP1;P1;durP2;ratioP2;P2;SDS_P1;SDS_P2;PMS_P1;PMS_P2;Temp;Humidity;BMP_temperature;BMP_pressure;BME280_temperature;BME280_humidity;BME280_pressure;Samples;Min_cycle;Max_cycle;Signal;HPM_P1;HPM_P2
2023/07/26 00:01:38;;;;;;;;;;;;;;;29.81;32.75;96966.63;5093397;28;19947;-90
2023/07/26 00:04:04;;;;;;;;;;;;;;;30.12;32.00;96963.84;5093191;28;19917;-90
2023/07/26 00:06:30;;;;;;;;;;;;;;;30.37;31.80;96968.69;5093481;28;19975;-90
2023/07/26 00:08:56;;;;;;;;;;;;;;;30.51;31.21;96967.78;5093430;28;19916;-90
2023/07/26 00:11:23;;;;;;;;;;;;;;;30.25;31.78;96969.84;5106650;28;19916;-89
2023/07/26 00:13:49;;;;;;;;;;;;;;;30.48;31.93;96953.84;5114006;28;19916;-90
2023/07/26 00:16:15;;;;;;;;;;;;;;;30.68;31.54;96956.56;5113866;28;20288;-90
2023/07/26 00:18:41;;;;;;;;;;;;;;;30.77;31.04;96962.78;5113499;28;19930;-90
2023/07/26 00:21:07;;;;;;;;;;;;;;;30.78;31.45;96972.84;5113855;28;20006;-90
2023/07/26 00:23:33;;;;;;;;;;;;;;;30.95;30.88;96972.97;5113445;28;19927;-90
2023/07/26 00:25:59;;;;;;;;;;;;;;;30.70;31.52;96973.81;5113697;28;20386;-90
2023/07/26 00:28:25;;;;;;;;;;;;;;;30.19;32.31;96977.53;5112694;28;19916;-90
2023/07/26 00:30:51;;;;;;;;;;;;;;;30.21;31.90;96977.81;5113582;28;20430;-90
2023/07/26 00:33:17;;;;;;;;;;;;;;;30.51;31.88;96972.66;5113332;28;19923;-90
2023/07/26 00:35:43;;;;;;;;;;;;;;;30.57;31.59;96971.41;5113569;28;19923;-90
2023/07/26 00:38:09;;;;;;;;;;;;;;;30.66;31.33;96978.97;5113513;28;19973;-90
2023/07/26 00:40:36;;;;;;;;;;;;;;;30.73;31.34;96978.47;5113421;28;19923;-90
2023/07/26 00:43:02;;;;;;;;;;;;;;;30.80;31.62;96977.22;5113376;28;19916;-89
2023/07/26 00:45:29;;;;;;;;;;;;;;;30.78;31.23;96981.34;5111072;28;20007;-90
2023/07/26 00:47:56;;;;;;;;;;;;;;;30.90;31.78;96975.78;5113300;28;19916;-90
2023/07/26 00:50:22;;;;;;;;;;;;;;;31.07;31.43;96979.47;5115386;28;19968;-89
2023/07/26 00:52:48;;;;;;;;;;;;;;;31.17;30.81;96981.59;5115672;28;20311;-90
2023/07/26 00:55:15;;;;;;;;;;;;;;;31.25;30.53;96981.88;5117270;28;19922;-90
2023/07/26 00:57:42;;;;;;;;;;;;;;;31.06;30.79;96975.88;5117109;28;20300;-90
2023/07/26 01:00:08;;;;;;;;;;;;;;;30.66;31.61;96970.44;5108607;28;19999;-90
2023/07/26 01:02:34;;;;;;;;;;;;;;;30.65;32.02;96972.50;5096970;28;19952;-90
2023/07/26 01:05:01;;;;;;;;;;;;;;;30.74;31.57;96971.50;5096463;28;19952;-90
2023/07/26 01:07:41;;;;;;;;;;;;;;;30.69;31.70;96964.53;5096478;28;20396;-90
2023/07/26 01:10:16;;;;;;;;;;;;;;;30.67;31.96;96961.44;5099952;28;19984;-90
2023/07/26 01:12:46;;;;;;;;;;;;;;;30.48;32.20;96963.09;5116770;28;19969;-90
2023/07/26 01:15:14;;;;;;;;;;;;;;;30.62;32.05;96967.09;5116539;28;19999;-90
2023/07/26 01:17:40;;;;;;;;;;;;;;;30.74;31.88;96966.63;5116533;28;19923;-90
2023/07/26 01:20:06;;;;;;;;;;;;;;;31.02;31.43;96966.03;5114494;28;20290;-90
2023/07/26 01:22:32;;;;;;;;;;;;;;;30.83;31.50;96965.66;5116695;28;19928;-90
2023/07/26 01:24:58;;;;;;;;;;;;;;;30.30;32.41;96954.19;5116562;28;19916;-90
2023/07/26 01:27:24;;;;;;;;;;;;;;;30.05;32.87;96955.81;5116364;28;20296;-90
2023/07/26 01:29:54;;;;;;;;;;;;;;;30.10;32.83;96952.25;5116188;28;19916;-90
2023/07/26 01:32:22;;;;;;;;;;;;;;;30.19;32.78;96952.06;5116635;28;19999;-90
2023/07/26 01:34:48;;;;;;;;;;;;;;;30.37;32.45;96948.88;5114269;28;20383;-90
2023/07/26 01:37:14;;;;;;;;;;;;;;;30.38;32.56;96949.66;5116316;28;19999;-90
2023/07/26 01:39:41;;;;;;;;;;;;;;;30.70;31.98;96956.81;5116321;28;19949;-90
2023/07/26 01:42:07;;;;;;;;;;;;;;;31.01;31.63;96962.44;5116094;28;20060;-90
2023/07/26 01:44:37;;;;;;;;;;;;;;;31.22;31.41;96960.22;5115864;28;19920;-90
2023/07/26 01:47:03;;;;;;;;;;;;;;;31.29;31.25;96974.69;5115937;28;19916;-90
2023/07/26 01:49:29;;;;;;;;;;;;;;;31.29;31.37;96969.00;5116353;28;19920;-90
2023/07/26 01:51:55;;;;;;;;;;;;;;;31.38;31.01;96968.78;5114054;28;19924;-90
2023/07/26 01:54:21;;;;;;;;;;;;;;;31.34;31.46;96979.56;5095616;28;20356;-91
2023/07/26 01:56:47;;;;;;;;;;;;;;;30.83;32.16;96970.56;5095478;28;19959;-90
2023/07/26 01:59:13;;;;;;;;;;;;;;;30.61;32.69;96980.47;5095100;28;19955;-90
2023/07/26 02:01:39;;;;;;;;;;;;;;;30.78;32.52;96980.59;5095339;28;19927;-90
2023/07/26 02:04:05;;;;;;;;;;;;;;;31.02;31.58;96975.31;5095232;28;19916;-91
2023/07/26 02:06:31;;;;;;;;;;;;;;;31.10;31.85;96973.56;5095401;28;19916;-90
2023/07/26 02:08:57;;;;;;;;;;;;;;;30.71;32.36;96973.31;5095691;28;19923;-91
2023/07/26 02:11:23;;;;;;;;;;;;;;;30.49;32.87;96966.72;5095096;28;19923;-90
2023/07/26 02:13:49;;;;;;;;;;;;;;;30.71;32.43;96966.88;5094969;28;19920;-90
2023/07/26 02:16:15;;;;;;;;;;;;;;;30.91;32.01;96963.16;5095101;28;19938;-91
2023/07/26 02:18:41;;;;;;;;;;;;;;;30.91;31.71;96966.75;5095023;28;19916;-90
2023/07/26 02:21:07;;;;;;;;;;;;;;;30.98;32.02;96971.94;5095122;28;19917;-90
2023/07/26 02:23:33;;;;;;;;;;;;;;;31.18;31.55;96968.19;5094732;28;20373;-90
2023/07/26 02:25:59;;;;;;;;;;;;;;;31.22;31.41;96972.34;5094181;28;19920;-90
2023/07/26 02:28:25;;;;;;;;;;;;;;;31.29;31.58;96966.19;5094627;28;20007;-90
2023/07/26 02:30:51;;;;;;;;;;;;;;;31.24;31.64;96955.56;5094962;28;19999;-90
2023/07/26 02:33:17;;;;;;;;;;;;;;;30.95;31.86;96958.03;5094727;28;19958;-90
2023/07/26 02:35:43;;;;;;;;;;;;;;;30.55;32.66;96959.06;5094751;28;20323;-90
2023/07/26 02:38:10;;;;;;;;;;;;;;;30.53;32.83;96968.03;5094996;28;19920;-90
2023/07/26 02:40:37;;;;;;;;;;;;;;;30.79;32.55;96970.78;5094765;28;19916;-90
2023/07/26 02:43:03;;;;;;;;;;;;;;;31.05;31.88;96976.38;5094835;28;19920;-90
2023/07/26 02:45:29;;;;;;;;;;;;;;;31.37;31.61;96970.06;5094613;28;20278;-90
2023/07/26 02:47:55;;;;;;;;;;;;;;;31.54;31.11;96967.31;5094599;28;19920;-90
2023/07/26 02:50:21;;;;;;;;;;;;;;;31.62;30.60;96973.25;5094420;28;20007;-91
2023/07/26 02:52:47;;;;;;;;;;;;;;;30.99;31.83;96964.22;5094294;28;19967;-90
2023/07/26 02:55:13;;;;;;;;;;;;;;;30.42;32.95;96953.03;5094555;28;19961;-90
2023/07/26 02:57:39;;;;;;;;;;;;;;;30.19;33.54;96954.88;5094088;28;19916;-90
2023/07/26 03:00:05;;;;;;;;;;;;;;;30.56;32.58;96952.09;5094815;28;19924;-90
2023/07/26 03:02:31;;;;;;;;;;;;;;;30.99;31.71;96944.38;5094153;28;19923;-90
2023/07/26 03:04:57;;;;;;;;;;;;;;;31.19;31.38;96947.81;5094199;28;20019;-91
2023/07/26 03:07:23;;;;;;;;;;;;;;;31.28;31.18;96958.16;5092952;28;19916;-91
2023/07/26 03:09:50;;;;;;;;;;;;;;;31.19;31.55;96958.38;5094201;28;20406;-91
2023/07/26 03:12:16;;;;;;;;;;;;;;;31.12;31.65;96953.97;5110796;28;19922;-91
2023/07/26 03:14:42;;;;;;;;;;;;;;;31.14;31.15;96951.41;5114395;28;20002;-91
2023/07/26 03:17:11;;;;;;;;;;;;;;;31.14;31.54;96959.13;5110844;28;19959;-91
2023/07/26 03:19:37;;;;;;;;;;;;;;;31.21;31.87;96959.44;5093923;28;19927;-91
2023/07/26 03:22:03;;;;;;;;;;;;;;;31.36;31.61;96974.19;5092407;28;19924;-91
2023/07/26 03:24:29;;;;;;;;;;;;;;;31.46;31.54;96971.91;5094173;28;20262;-91
2023/07/26 03:26:55;;;;;;;;;;;;;;;31.45;31.53;96969.59;5093616;28;19922;-91
2023/07/26 03:29:21;;;;;;;;;;;;;;;31.46;31.55;96983.25;5094071;28;19916;-91
2023/07/26 03:31:47;;;;;;;;;;;;;;;31.35;31.48;96983.97;5093806;28;19916;-90
2023/07/26 03:34:13;;;;;;;;;;;;;;;30.98;31.75;96988.19;5094259;28;19923;-91
2023/07/26 03:36:39;;;;;;;;;;;;;;;30.72;32.52;96986.19;5093814;28;20377;-90
2023/07/26 03:39:05;;;;;;;;;;;;;;;30.68;32.53;96991.34;5093664;28;20005;-90
2023/07/26 03:41:31;;;;;;;;;;;;;;;30.86;32.38;96992.19;5093728;28;19923;-91
2023/07/26 03:43:57;;;;;;;;;;;;;;;31.11;31.85;96989.28;5093558;28;19923;-90
2023/07/26 03:46:23;;;;;;;;;;;;;;;30.72;32.75;96991.88;5092316;28;20279;-91
2023/07/26 03:48:49;;;;;;;;;;;;;;;30.37;33.47;96984.91;5092368;28;19924;-91
2023/07/26 03:51:15;;;;;;;;;;;;;;;30.41;33.34;96985.47;5094051;28;19958;-90
2023/07/26 03:53:41;;;;;;;;;;;;;;;30.83;32.88;96982.66;5107154;28;19977;-91
2023/07/26 03:56:07;;;;;;;;;;;;;;;31.30;32.21;96975.44;5107209;28;19917;-91
2023/07/26 03:58:33;;;;;;;;;;;;;;;31.67;31.76;96981.78;5093607;28;19920;-91
2023/07/26 04:00:59;;;;;;;;;;;;;;;31.95;32.03;96985.44;5093625;28;19920;-91
2023/07/26 04:03:25;;;;;;;;;;;;;;;32.10;31.84;96985.25;5093355;28;20270;-91
2023/07/26 04:05:51;;;;;;;;;;;;;;;32.13;31.48;96989.91;5093466;28;19920;-91
2023/07/26 04:08:17;;;;;;;;;;;;;;;32.19;31.77;96987.03;5094243;28;19920;-91
2023/07/26 04:10:43;;;;;;;;;;;;;;;32.34;31.26;97002.56;5093153;28;20253;-90
2023/07/26 04:13:09;;;;;;;;;;;;;;;32.43;31.05;97010.06;5104136;28;19924;-90
2023/07/26 04:15:35;;;;;;;;;;;;;;;32.50;30.88;97013.19;5113805;28;19916;-90
2023/07/26 04:18:01;;;;;;;;;;;;;;;32.37;30.75;96998.69;5113703;28;19916;-90
2023/07/26 04:20:27;;;;;;;;;;;;;;;32.05;31.85;96998.16;5113958;28;19916;-91
2023/07/26 04:22:53;;;;;;;;;;;;;;;32.22;31.59;97003.06;5113547;28;20014;-91
2023/07/26 04:25:19;;;;;;;;;;;;;;;32.27;31.29;97002.31;5114409;28;20368;-91
2023/07/26 04:27:48;;;;;;;;;;;;;;;32.18;31.61;97008.25;5115311;28;20006;-90
2023/07/26 04:30:14;;;;;;;;;;;;;;;32.11;31.66;97018.06;5107571;28;19966;-91
2023/07/26 04:32:41;;;;;;;;;;;;;;;32.23;31.73;97013.91;5097248;28;19916;-91
2023/07/26 04:35:07;;;;;;;;;;;;;;;32.43;31.03;97024.25;5097056;28;19957;-90
2023/07/26 04:37:33;;;;;;;;;;;;;;;32.29;31.62;97016.75;5097078;28;19928;-90
2023/07/26 04:39:59;;;;;;;;;;;;;;;32.00;31.80;97007.44;5096932;28;19935;-90
2023/07/26 04:42:25;;;;;;;;;;;;;;;31.20;33.14;96994.72;5097405;28;20444;-90
2023/07/26 04:44:51;;;;;;;;;;;;;;;31.02;33.39;96992.31;5096835;28;20342;-91
2023/07/26 04:47:19;;;;;;;;;;;;;;;31.26;33.15;96987.03;5107837;28;19951;-90
2023/07/26 04:49:45;;;;;;;;;;;;;;;31.64;33.35;96988.50;5117463;28;19922;-90
2023/07/26 04:52:11;;;;;;;;;;;;;;;31.99;32.74;96988.06;5116655;28;19967;-90
2023/07/26 04:54:37;;;;;;;;;;;;;;;32.29;32.26;97009.03;5112522;28;20033;-90
2023/07/26 04:57:03;;;;;;;;;;;;;;;32.41;32.46;97004.13;5096826;28;19948;-90
2023/07/26 04:59:29;;;;;;;;;;;;;;;32.49;32.57;97017.31;5097282;28;19920;-90
2023/07/26 05:01:55;;;;;;;;;;;;;;;32.66;32.11;97018.09;5096673;28;19969;-90
2023/07/26 05:04:21;;;;;;;;;;;;;;;32.64;31.99;97012.16;5096721;28;19920;-90
2023/07/26 05:06:47;;;;;;;;;;;;;;;32.62;32.73;97008.28;5096256;28;19916;-90
2023/07/26 05:09:13;;;;;;;;;;;;;;;32.65;32.98;97016.53;5096416;28;19958;-91
2023/07/26 05:11:39;;;;;;;;;;;;;;;32.79;33.00;97016.78;5096420;28;19946;-90
2023/07/26 05:14:05;;;;;;;;;;;;;;;32.86;32.50;97013.41;5100335;28;19916;-90
2023/07/26 05:16:31;;;;;;;;;;;;;;;32.89;32.84;97012.34;5115754;28;19976;-90
2023/07/26 05:18:58;;;;;;;;;;;;;;;33.08;33.16;97016.22;5116622;28;20376;-90
2023/07/26 05:21:25;;;;;;;;;;;;;;;33.30;32.78;97019.00;5116534;28;19920;-90
2023/07/26 05:23:51;;;;;;;;;;;;;;;33.43;33.05;97011.44;5116489;28;19920;-90
2023/07/26 05:26:17;;;;;;;;;;;;;;;33.32;32.37;97014.34;5116596;28;19916;-90
2023/07/26 05:28:43;;;;;;;;;;;;;;;33.15;33.29;97019.31;5116610;28;19939;-91
2023/07/26 05:31:09;;;;;;;;;;;;;;;32.98;33.80;97012.84;5116496;28;19915;-91
2023/07/26 05:33:35;;;;;;;;;;;;;;;33.12;33.32;97013.88;5115586;28;20369;-90
2023/07/26 05:36:01;;;;;;;;;;;;;;;33.33;33.76;97010.19;5115741;28;19922;-90
2023/07/26 05:38:27;;;;;;;;;;;;;;;33.53;32.29;97005.50;5116263;28;19916;-92
2023/07/26 05:41:00;;;;;;;;;;;;;;;33.46;32.34;97001.09;5116249;28;19916;-91
2023/07/26 05:43:26;;;;;;;;;;;;;;;33.45;33.18;97010.91;5116034;28;19970;-90
2023/07/26 05:45:52;;;;;;;;;;;;;;;33.59;32.99;97009.06;5115631;28;19920;-90
2023/07/26 05:48:18;;;;;;;;;;;;;;;33.60;32.91;97002.88;5095593;28;19912;-91
2023/07/26 05:50:47;;;;;;;;;;;;;;;33.66;33.15;97008.53;5095936;28;19916;-91
2023/07/26 05:53:13;;;;;;;;;;;;;;;33.71;32.95;97002.81;5095294;28;19975;-91
2023/07/26 05:55:39;;;;;;;;;;;;;;;33.83;31.89;96998.59;5095838;28;19931;-91
2023/07/26 05:58:05;;;;;;;;;;;;;;;33.68;32.55;97003.09;5095516;28;19916;-93
2023/07/26 06:00:31;;;;;;;;;;;;;;;33.74;32.96;97007.47;5095445;28;19961;-93
2023/07/26 06:02:57;;;;;;;;;;;;;;;33.87;33.57;96995.47;5095368;28;20498;-90
2023/07/26 06:05:24;;;;;;;;;;;;;;;34.04;33.20;96991.25;5095296;28;19952;-91
2023/07/26 06:07:50;;;;;;;;;;;;;;;33.90;33.32;96995.19;5095846;28;20030;-91
2023/07/26 06:10:16;;;;;;;;;;;;;;;33.96;33.58;96993.06;5095357;28;19916;-92
2023/07/26 06:12:42;;;;;;;;;;;;;;;33.77;32.95;96989.31;5095452;28;19916;-92
2023/07/26 06:15:08;;;;;;;;;;;;;;;33.47;32.98;96993.34;5093859;28;19951;-92
2023/07/26 06:17:35;;;;;;;;;;;;;;;33.49;32.44;97002.13;5115368;28;19926;-94
2023/07/26 06:20:01;;;;;;;;;;;;;;;33.59;32.66;97011.91;5115443;28;19922;-93
2023/07/26 06:22:28;;;;;;;;;;;;;;;33.25;33.22;97006.34;5115270;28;20368;-93
2023/07/26 06:24:54;;;;;;;;;;;;;;;33.24;33.15;97009.69;5114558;28;19955;-92
2023/07/26 06:27:21;;;;;;;;;;;;;;;33.39;33.40;97008.13;5113989;28;19955;-91
2023/07/26 06:29:47;;;;;;;;;;;;;;;33.65;33.75;97007.00;5115322;28;19920;-92
2023/07/26 06:32:13;;;;;;;;;;;;;;;33.98;32.70;97009.66;5115180;28;20057;-91
2023/07/26 06:34:39;;;;;;;;;;;;;;;33.94;32.52;97012.00;5115020;28;19959;-92
2023/07/26 06:37:05;;;;;;;;;;;;;;;33.86;33.15;97011.00;5115364;28;20006;-93
2023/07/26 06:39:31;;;;;;;;;;;;;;;33.97;32.45;97013.78;5115311;28;19939;-92
2023/07/26 06:41:57;;;;;;;;;;;;;;;33.85;32.49;97010.25;5114157;28;20373;-91
2023/07/26 06:44:23;;;;;;;;;;;;;;;33.84;32.85;97005.06;5114969;28;20013;-92
2023/07/26 06:46:49;;;;;;;;;;;;;;;33.85;32.13;97013.09;5106033;28;19974;-92
2023/07/26 06:49:15;;;;;;;;;;;;;;;33.78;32.70;97021.41;5092659;28;19967;-92
2023/07/26 06:51:41;;;;;;;;;;;;;;;33.85;33.14;97020.84;5096501;28;19926;-91
2023/07/26 06:54:07;;;;;;;;;;;;;;;34.24;33.35;97023.50;5114835;28;19916;-92
2023/07/26 06:56:34;;;;;;;;;;;;;;;34.50;32.46;97024.56;5113062;28;19924;-92
2023/07/26 06:59:01;;;;;;;;;;;;;;;34.63;32.06;97030.47;5103908;28;20300;-92
2023/07/26 07:01:27;;;;;;;;;;;;;;;34.52;32.34;97027.69;5094377;28;19916;-92
2023/07/26 07:03:53;;;;;;;;;;;;;;;34.55;32.97;97031.56;5093922;28;19916;-92
2023/07/26 07:06:19;;;;;;;;;;;;;;;34.66;32.90;97031.47;5094172;28;19923;-92
2023/07/26 07:08:45;;;;;;;;;;;;;;;34.75;32.61;97031.88;5094111;28;20395;-92
2023/07/26 07:11:11;;;;;;;;;;;;;;;34.75;32.70;97031.88;5094258;28;20269;-92
2023/07/26 07:13:37;;;;;;;;;;;;;;;34.38;33.50;97030.91;5094066;28;19922;-92
2023/07/26 07:16:06;;;;;;;;;;;;;;;34.08;33.19;97027.97;5094575;28;19916;-93
2023/07/26 07:18:32;;;;;;;;;;;;;;;34.22;32.49;97026.06;5094116;28;19969;-92
2023/07/26 07:21:00;;;;;;;;;;;;;;;34.41;31.14;97026.97;5093940;28;20043;-92
2023/07/26 07:23:27;;;;;;;;;;;;;;;34.40;32.52;97026.19;5093847;28;19924;-92
2023/07/26 07:25:53;;;;;;;;;;;;;;;34.41;32.23;97030.59;5094241;28;19916;-92
2023/07/26 07:28:19;;;;;;;;;;;;;;;34.63;31.60;97021.91;5093916;28;19916;-92
2023/07/26 07:30:46;;;;;;;;;;;;;;;34.51;31.83;97022.50;5093872;28;19923;-92
2023/07/26 07:33:12;;;;;;;;;;;;;;;34.67;32.48;97022.38;5094219;28;19916;-92
2023/07/26 07:35:38;;;;;;;;;;;;;;;34.72;31.41;97013.00;5093845;28;19961;-93
2023/07/26 07:38:04;;;;;;;;;;;;;;;34.98;30.29;97023.91;5093958;28;19916;-92
2023/07/26 07:40:30;;;;;;;;;;;;;;;34.63;30.62;97024.75;5093702;28;19920;-91
2023/07/26 07:42:56;;;;;;;;;;;;;;;34.27;30.91;97033.81;5093624;28;19916;-93
2023/07/26 07:45:22;;;;;;;;;;;;;;;32.29;38.24;97031.75;5093914;28;19916;-88
2023/07/26 07:47:48;;;;;;;;;;;;;;;30.94;37.05;97041.53;5110443;28;19922;-90
2023/07/26 07:50:14;;;;;;;;;;;;;;;29.65;37.80;97038.72;5115002;28;19916;-91
2023/07/26 07:52:41;;;;;;;;;;;;;;;29.19;39.22;97057.69;5116413;28;19927;-92
2023/07/26 07:55:07;;;;;;;;;;;;;;;29.37;39.56;97049.72;5114468;28;19959;-93
2023/07/26 07:57:33;;;;;;;;;;;;;;;29.93;38.90;97041.88;5113892;28;20300;-93
2023/07/26 07:59:59;;;;;;;;;;;;;;;30.44;38.43;97046.78;5117084;28;19920;-92
2023/07/26 08:02:25;;;;;;;;;;;;;;;30.46;38.54;97052.72;5117811;28;19916;-91
2023/07/26 08:04:51;;;;;;;;;;;;;;;30.16;37.47;97074.03;5118467;28;19920;-93
2023/07/26 08:07:17;;;;;;;;;;;;;;;30.20;38.28;97083.09;5117568;28;20384;-93
2023/07/26 08:09:44;;;;;;;;;;;;;;;30.13;37.94;97072.97;5118689;28;19944;-93
2023/07/26 08:12:10;;;;;;;;;;;;;;;30.37;37.61;97070.66;5117045;28;19924;-93
2023/07/26 08:14:36;;;;;;;;;;;;;;;30.48;37.12;97070.75;5117876;28;20467;-94
2023/07/26 08:17:02;;;;;;;;;;;;;;;30.52;37.19;97074.16;5117524;28;19947;-94
2023/07/26 08:19:28;;;;;;;;;;;;;;;30.53;37.64;97067.19;5117878;28;19923;-94
2023/07/26 08:21:55;;;;;;;;;;;;;;;30.58;37.99;97069.31;5117785;28;19930;-95
2023/07/26 08:24:21;;;;;;;;;;;;;;;30.58;37.94;97066.47;5117052;28;19922;-94
2023/07/26 08:26:47;;;;;;;;;;;;;;;30.40;38.00;97077.38;5117691;28;19916;-94
2023/07/26 08:29:13;;;;;;;;;;;;;;;30.30;38.50;97073.91;5117618;28;19916;-94
2023/07/26 08:31:39;;;;;;;;;;;;;;;30.48;38.38;97078.50;5117279;28;19916;-95
2023/07/26 08:34:05;;;;;;;;;;;;;;;30.53;38.40;97083.41;5117811;28;19916;-94
2023/07/26 08:36:31;;;;;;;;;;;;;;;30.73;38.73;97086.97;5117567;28;19920;-94
2023/07/26 08:38:57;;;;;;;;;;;;;;;30.73;37.93;97084.13;5117533;28;19923;-94
2023/07/26 08:41:24;;;;;;;;;;;;;;;30.55;38.68;97086.56;5117248;28;19951;-94
2023/07/26 08:43:53;;;;;;;;;;;;;;;30.87;38.29;97087.31;5115930;28;20033;-94
2023/07/26 08:46:20;;;;;;;;;;;;;;;30.84;38.04;97094.75;5112786;28;19920;-93
2023/07/26 08:48:46;;;;;;;;;;;;;;;30.68;37.90;97090.53;5096729;28;20008;-92
2023/07/26 08:51:12;;;;;;;;;;;;;;;30.73;38.15;97103.19;5096893;28;19927;-92
2023/07/26 08:53:39;;;;;;;;;;;;;;;30.29;37.87;97097.88;5096671;28;19924;-94
2023/07/26 08:56:06;;;;;;;;;;;;;;;29.64;39.51;97090.91;5097004;28;20002;-94
2023/07/26 08:58:32;;;;;;;;;;;;;;;27.27;44.29;97103.16;5097610;28;19916;-93
2023/07/26 09:00:59;;;;;;;;;;;;;;;27.54;42.40;97110.66;5096479;28;19923;-93
2023/07/26 09:03:25;;;;;;;;;;;;;;;27.99;40.71;97127.28;5096473;28;19920;-92
2023/07/26 09:06:00;;;;;;;;;;;;;;;28.43;39.73;97118.84;5096528;28;19920;-90
2023/07/26 09:08:27;;;;;;;;;;;;;;;28.74;39.19;97132.50;5095240;28;19969;-92
2023/07/26 09:10:53;;;;;;;;;;;;;;;29.05;38.83;97123.50;5095662;28;19923;-90
2023/07/26 09:13:19;;;;;;;;;;;;;;;29.27;39.24;97121.81;5094929;28;19942;-92
2023/07/26 09:15:45;;;;;;;;;;;;;;;29.54;38.80;97129.13;5096855;28;19923;-91
2023/07/26 09:18:12;;;;;;;;;;;;;;;29.71;38.39;97132.19;5096187;28;20012;-90
2023/07/26 09:20:38;;;;;;;;;;;;;;;29.77;37.63;97142.31;5096421;28;19959;-90
2023/07/26 09:23:06;;;;;;;;;;;;;;;29.88;37.78;97136.00;5096620;28;19927;-91
2023/07/26 09:25:34;;;;;;;;;;;;;;;29.91;37.71;97143.50;5096300;28;19920;-90
2023/07/26 09:28:01;;;;;;;;;;;;;;;29.90;37.56;97131.41;5096200;28;20288;-91
2023/07/26 09:30:27;;;;;;;;;;;;;;;30.09;37.61;97135.50;5096204;28;20004;-92
2023/07/26 09:32:54;;;;;;;;;;;;;;;29.76;38.20;97145.63;5098696;28;19912;-90
2023/07/26 09:35:20;;;;;;;;;;;;;;;29.60;37.93;97144.13;5096059;28;19927;-92
2023/07/26 09:37:46;;;;;;;;;;;;;;;29.71;38.15;97151.97;5095945;28;19916;-92
2023/07/26 09:40:13;;;;;;;;;;;;;;;29.96;37.69;97149.25;5095826;28;19919;-93
2023/07/26 09:42:44;;;;;;;;;;;;;;;29.94;37.12;97151.78;5095579;28;19923;-93
2023/07/26 09:45:13;;;;;;;;;;;;;;;28.88;38.91;97162.78;5095841;28;19964;-92
2023/07/26 09:47:39;;;;;;;;;;;;;;;28.98;39.12;97166.28;5095844;28;19977;-90
2023/07/26 09:50:05;;;;;;;;;;;;;;;29.12;38.99;97165.50;5115282;28;19916;-90
2023/07/26 09:52:32;;;;;;;;;;;;;;;29.16;38.95;97161.19;5115977;28;19965;-89
2023/07/26 09:54:59;;;;;;;;;;;;;;;29.31;39.04;97155.53;5102294;28;20392;-90
2023/07/26 09:57:26;;;;;;;;;;;;;;;29.38;38.75;97155.13;5106726;27;19912;-89
2023/07/26 09:59:57;;;;;;;;;;;;;;;29.51;38.85;97158.38;5115872;28;20010;-90
2023/07/26 10:02:23;;;;;;;;;;;;;;;29.43;38.88;97160.84;5115740;28;20012;-90
2023/07/26 10:04:50;;;;;;;;;;;;;;;28.98;38.89;97161.44;5114934;28;19922;-90
2023/07/26 10:07:17;;;;;;;;;;;;;;;28.81;39.99;97171.66;5114202;28;19926;-89
2023/07/26 10:09:45;;;;;;;;;;;;;;;28.34;39.77;97180.28;5115759;28;20395;-90
2023/07/26 10:12:11;;;;;;;;;;;;;;;27.79;41.10;97179.94;5111723;28;19916;-91
2023/07/26 10:14:38;;;;;;;;;;;;;;;27.24;42.15;97170.97;5095241;28;19917;-90
2023/07/26 10:17:04;;;;;;;;;;;;;;;27.50;42.17;97182.59;5100446;28;20419;-89
2023/07/26 10:19:31;;;;;;;;;;;;;;;27.55;42.27;97184.78;5115922;28;19931;-90
2023/07/26 10:21:57;;;;;;;;;;;;;;;27.40;41.51;97191.13;5113909;28;19920;-90
2023/07/26 10:24:24;;;;;;;;;;;;;;;26.84;42.38;97196.66;5115312;28;19920;-88
2023/07/26 10:26:51;;;;;;;;;;;;;;;26.91;42.25;97195.56;5115398;28;19955;-90
2023/07/26 10:29:18;;;;;;;;;;;;;;;26.72;41.84;97194.78;5115375;28;20003;-92
2023/07/26 10:31:44;;;;;;;;;;;;;;;25.66;44.93;97205.09;5115327;27;19916;-93
2023/07/26 10:34:17;;;;;;;;;;;;;;;26.26;43.63;97204.53;5113914;28;19926;-90
2023/07/26 10:36:43;;;;;;;;;;;;;;;27.47;41.84;97197.69;5115221;28;19947;-90
2023/07/26 10:39:11;;;;;;;;;;;;;;;27.67;41.15;97200.69;5114215;28;20527;-90
2023/07/26 10:41:46;;;;;;;;;;;;;;;27.40;41.40;97204.44;5114950;28;19916;-92
2023/07/26 10:44:12;;;;;;;;;;;;;;;27.67;41.31;97201.47;5114839;28;20377;-91
2023/07/26 10:46:47;;;;;;;;;;;;;;;27.82;41.05;97216.41;5115062;28;19954;-91
2023/07/26 10:49:18;;;;;;;;;;;;;;;27.56;41.36;97220.97;5101965;28;20025;-90
2023/07/26 10:51:51;;;;;;;;;;;;;;;27.46;41.86;97213.81;5094558;28;19920;-91
2023/07/26 10:54:37;;;;;;;;;;;;;;;27.65;41.32;97212.47;5094488;28;19920;-92
2023/07/26 10:57:12;;;;;;;;;;;;;;;27.53;41.91;97215.50;5095242;28;20330;-91
2023/07/26 10:59:50;;;;;;;;;;;;;;;27.32;41.60;97220.13;5094385;28;20377;-91
2023/07/26 11:02:33;;;;;;;;;;;;;;;26.79;43.16;97219.84;5094288;28;19966;-89
2023/07/26 11:05:00;;;;;;;;;;;;;;;26.67;44.03;97227.19;5094310;28;19920;-90
2023/07/26 11:07:46;;;;;;;;;;;;;;;26.97;43.12;97228.22;5094313;28;19923;-90
2023/07/26 11:10:16;;;;;;;;;;;;;;;27.08;43.32;97227.72;5093802;28;20433;-91
2023/07/26 11:12:42;;;;;;;;;;;;;;;27.04;43.00;97232.75;5094126;28;19968;-89
2023/07/26 11:15:08;;;;;;;;;;;;;;;27.48;43.10;97228.22;5094592;28;19916;-90
2023/07/26 11:17:39;;;;;;;;;;;;;;;27.26;43.38;97231.25;5094087;28;20415;-90
2023/07/26 11:20:05;;;;;;;;;;;;;;;27.61;43.29;97225.94;5111472;28;20384;-90
2023/07/26 11:22:32;;;;;;;;;;;;;;;27.49;43.19;97231.81;5114507;28;20016;-90
2023/07/26 11:25:02;;;;;;;;;;;;;;;27.19;44.54;97233.66;5114349;28;19920;-92
2023/07/26 11:27:28;;;;;;;;;;;;;;;26.30;45.53;97242.53;5114239;28;19924;-92
2023/07/26 11:29:54;;;;;;;;;;;;;;;26.57;47.36;97239.72;5113484;28;19962;-90
2023/07/26 11:32:28;;;;;;;;;;;;;;;27.36;44.26;97254.53;5114331;28;19919;-90
2023/07/26 11:34:54;;;;;;;;;;;;;;;27.99;42.27;97245.00;5114110;28;20007;-90
2023/07/26 11:37:21;;;;;;;;;;;;;;;28.52;41.42;97248.66;5114102;28;20364;-89
2023/07/26 11:39:47;;;;;;;;;;;;;;;28.28;41.16;97250.78;5114074;28;19927;-90
2023/07/26 11:42:16;;;;;;;;;;;;;;;27.83;42.80;97262.34;5113980;28;20262;-90
2023/07/26 11:44:42;;;;;;;;;;;;;;;27.87;40.85;97260.88;5114130;28;20368;-89
2023/07/26 11:47:09;;;;;;;;;;;;;;;27.14;41.96;97276.56;5096784;28;19916;-89
2023/07/26 11:49:37;;;;;;;;;;;;;;;26.03;43.64;97281.88;5113991;28;19916;-87
2023/07/26 11:52:11;;;;;;;;;;;;;;;25.95;43.60;97275.00;5112966;28;19927;-88
2023/07/26 11:54:58;;;;;;;;;;;;;;;26.30;42.38;97281.16;5113207;28;21659;-88
2023/07/26 11:57:25;;;;;;;;;;;;;;;25.59;43.40;97288.94;5113610;28;19929;-89
2023/07/26 11:59:52;;;;;;;;;;;;;;;25.89;42.50;97288.09;5113989;28;19916;-89
2023/07/26 12:02:18;;;;;;;;;;;;;;;25.99;41.63;97292.50;5112637;28;19920;-87
2023/07/26 12:05:04;;;;;;;;;;;;;;;25.18;42.98;97298.59;5103617;28;20010;-88
2023/07/26 12:07:30;;;;;;;;;;;;;;;25.00;43.85;97307.69;5089507;28;19985;-88
2023/07/26 12:09:57;;;;;;;;;;;;;;;25.83;42.31;97301.22;5093774;28;19916;-87
2023/07/26 12:12:23;;;;;;;;;;;;;;;25.40;42.51;97319.78;5093422;28;19970;-87
2023/07/26 12:14:49;;;;;;;;;;;;;;;25.46;42.57;97322.81;5093426;28;20300;-87
2023/07/26 12:17:15;;;;;;;;;;;;;;;25.32;42.78;97326.13;5093564;28;20372;-87
2023/07/26 12:19:44;;;;;;;;;;;;;;;25.70;41.78;97323.03;5093039;28;20373;-87
2023/07/26 12:22:10;;;;;;;;;;;;;;;25.69;41.72;97321.47;5092686;28;19921;-88
2023/07/26 12:24:49;;;;;;;;;;;;;;;25.98;41.57;97328.28;5093461;28;19932;-87
2023/07/26 12:27:15;;;;;;;;;;;;;;;26.13;41.24;97327.72;5093574;28;19954;-87
2023/07/26 12:29:41;;;;;;;;;;;;;;;26.52;40.85;97338.88;5093379;28;19952;-87
2023/07/26 12:32:11;;;;;;;;;;;;;;;26.33;40.36;97337.28;5093411;28;20346;-86
2023/07/26 12:34:41;;;;;;;;;;;;;;;26.23;40.52;97338.56;5093286;28;19969;-88
2023/07/26 12:37:07;;;;;;;;;;;;;;;26.24;40.38;97344.94;5091961;28;19962;-87
2023/07/26 12:39:34;;;;;;;;;;;;;;;25.98;40.94;97350.00;5093879;28;19920;-86
2023/07/26 12:42:00;;;;;;;;;;;;;;;26.51;40.72;97353.44;5093138;28;20348;-88
2023/07/26 12:44:27;;;;;;;;;;;;;;;26.80;40.19;97362.22;5079462;28;19959;-87
2023/07/26 12:46:54;;;;;;;;;;;;;;;26.26;40.24;97360.09;5095773;28;19925;-87